createdAt,value
2022-07-29T00:01:18.997Z,57.34
2022-07-29T00:03:37.356Z,57.54
2022-07-29T00:06:04.593Z,57.51
2022-07-29T00:08:31.738Z,57.38
2022-07-29T00:10:58.230Z,57.33
2022-07-29T00:13:31.821Z,57.46
2022-07-29T00:15:51.301Z,57.35
2022-07-29T00:18:17.937Z,57.40
2022-07-29T00:20:44.361Z,57.40
2022-07-29T00:23:13.621Z,57.57
2022-07-29T00:25:37.206Z,57.39
2022-07-29T00:28:03.623Z,57.28
2022-07-29T00:30:30.057Z,57.38
2022-07-29T00:32:56.530Z,57.31
2022-07-29T00:35:22.971Z,57.11
2022-07-29T00:37:49.380Z,57.16
2022-07-29T00:40:15.834Z,57.35
2022-07-29T00:42:42.241Z,57.45
2022-07-29T00:45:08.696Z,57.37
2022-07-29T00:47:35.132Z,57.23
2022-07-29T00:50:01.539Z,57.09
2022-07-29T00:52:27.997Z,57.00
2022-07-29T00:54:54.402Z,57.13
2022-07-29T00:57:20.870Z,57.45
2022-07-29T00:59:47.398Z,57.19
2022-07-29T01:02:13.854Z,57.20
2022-07-29T01:04:40.214Z,57.26
2022-07-29T01:07:06.696Z,57.14
2022-07-29T01:09:43.036Z,57.36
2022-07-29T01:11:59.531Z,57.24
2022-07-29T01:14:25.968Z,57.10
2022-07-29T01:16:52.348Z,57.10
2022-07-29T01:19:18.733Z,57.29
2022-07-29T01:21:45.113Z,57.06
2022-07-29T01:24:11.527Z,57.03
2022-07-29T01:26:37.921Z,56.97
2022-07-29T01:29:07.519Z,56.90
2022-07-29T01:31:30.865Z,56.92
2022-07-29T01:33:57.289Z,56.97
2022-07-29T01:36:23.795Z,56.91
2022-07-29T01:38:50.181Z,57.06
2022-07-29T01:41:16.558Z,56.90
2022-07-29T01:43:42.942Z,56.99
2022-07-29T01:46:09.337Z,56.92
2022-07-29T01:48:35.876Z,57.05
2022-07-29T01:51:02.108Z,56.84
2022-07-29T01:53:28.494Z,56.99
2022-07-29T01:55:54.872Z,57.01
2022-07-29T01:58:22.899Z,56.99
2022-07-29T02:00:47.813Z,56.77
2022-07-29T02:03:14.175Z,56.73
2022-07-29T02:05:40.686Z,56.92
2022-07-29T02:08:08.077Z,56.92
2022-07-29T02:10:33.472Z,56.45
2022-07-29T02:12:59.859Z,56.00
2022-07-29T02:15:26.235Z,55.21
2022-07-29T02:17:52.628Z,54.91
2022-07-29T02:20:19.081Z,54.80
2022-07-29T02:22:45.464Z,54.68
2022-07-29T02:25:13.919Z,54.58
2022-07-29T02:27:38.233Z,54.63
2022-07-29T02:30:04.712Z,54.58
2022-07-29T02:32:32.051Z,54.59
2022-07-29T02:34:57.511Z,54.58
2022-07-29T02:37:23.898Z,54.51
2022-07-29T02:39:50.299Z,54.54
2022-07-29T02:42:16.776Z,54.66
2022-07-29T02:44:43.156Z,54.65
2022-07-29T02:47:09.541Z,54.86
2022-07-29T02:49:35.919Z,54.90
2022-07-29T02:52:02.417Z,55.09
2022-07-29T02:54:28.823Z,55.19
2022-07-29T02:56:55.224Z,55.36
2022-07-29T02:59:21.607Z,55.51
2022-07-29T03:01:49.679Z,55.73
2022-07-29T03:04:14.772Z,55.92
2022-07-29T03:06:40.753Z,56.17
2022-07-29T03:09:12.572Z,56.27
2022-07-29T03:11:44.290Z,56.43
2022-07-29T03:13:59.938Z,56.53
2022-07-29T03:16:26.441Z,56.69
2022-07-29T03:18:52.765Z,56.67
2022-07-29T03:21:19.198Z,56.81
2022-07-29T03:23:45.632Z,56.91
2022-07-29T03:26:12.022Z,57.03
2022-07-29T03:28:38.427Z,57.12
2022-07-29T03:31:04.848Z,57.26
2022-07-29T03:33:31.208Z,57.57
2022-07-29T03:35:57.595Z,57.78
2022-07-29T03:38:23.979Z,57.79
2022-07-29T03:40:50.357Z,57.98
2022-07-29T03:43:16.792Z,58.01
2022-07-29T03:45:43.213Z,57.95
2022-07-29T03:48:09.596Z,57.88
2022-07-29T03:50:36.093Z,57.78
2022-07-29T03:53:02.500Z,57.60
2022-07-29T03:55:28.884Z,57.43
2022-07-29T03:57:55.276Z,56.98
2022-07-29T04:00:21.665Z,56.35
2022-07-29T04:02:48.038Z,56.32
2022-07-29T04:05:14.418Z,56.22
2022-07-29T04:07:40.819Z,56.27
2022-07-29T04:10:07.211Z,56.24
2022-07-29T04:12:35.546Z,56.37
2022-07-29T04:15:00.143Z,56.34
2022-07-29T04:17:26.504Z,56.45
2022-07-29T04:19:52.889Z,56.35
2022-07-29T04:22:20.909Z,56.43
2022-07-29T04:24:47.387Z,56.43
2022-07-29T04:27:13.771Z,56.52
2022-07-29T04:29:56.603Z,56.63
2022-07-29T04:32:06.563Z,56.65
2022-07-29T04:34:32.946Z,56.77
2022-07-29T04:36:59.332Z,56.68
2022-07-29T04:39:25.713Z,56.67
2022-07-29T04:41:52.607Z,56.74
2022-07-29T04:44:19.041Z,58.22
2022-07-29T04:46:44.960Z,56.99
2022-07-29T04:49:11.354Z,56.82
2022-07-29T04:51:37.679Z,56.91
2022-07-29T04:54:04.071Z,56.77
2022-07-29T04:56:30.517Z,56.76
2022-07-29T04:58:56.908Z,56.56
2022-07-29T05:01:23.331Z,56.42
2022-07-29T05:03:51.081Z,56.40
2022-07-29T05:06:16.067Z,56.35
2022-07-29T05:08:42.490Z,56.41
2022-07-29T05:11:12.474Z,56.46
2022-07-29T05:13:45.971Z,56.56
2022-07-29T05:16:01.708Z,56.63
2022-07-29T05:18:28.048Z,56.69
2022-07-29T05:20:54.441Z,56.69
2022-07-29T05:23:20.858Z,56.58
2022-07-29T05:25:47.235Z,56.49
2022-07-29T05:28:13.735Z,56.46
2022-07-29T05:30:40.164Z,56.34
2022-07-29T05:33:06.513Z,56.22
2022-07-29T05:35:32.897Z,56.14
2022-07-29T05:37:59.295Z,56.08
2022-07-29T05:40:25.677Z,56.05
2022-07-29T05:42:52.048Z,55.85
2022-07-29T05:45:18.437Z,55.81
2022-07-29T05:47:44.892Z,55.99
2022-07-29T05:50:11.330Z,55.84
2022-07-29T05:52:37.710Z,55.89
2022-07-29T05:55:04.119Z,55.88
2022-07-29T05:57:30.524Z,55.91
2022-07-29T05:59:59.339Z,55.96
2022-07-29T06:02:25.782Z,56.17
2022-07-29T06:04:52.194Z,56.24
2022-07-29T06:07:18.589Z,56.37
2022-07-29T06:09:44.955Z,56.38
2022-07-29T06:12:11.353Z,56.61
2022-07-29T06:14:37.740Z,56.80
2022-07-29T06:17:04.143Z,56.82
2022-07-29T06:19:30.542Z,56.91
2022-07-29T06:21:56.931Z,57.00
2022-07-29T06:24:23.352Z,57.23
2022-07-29T06:26:49.692Z,57.44
2022-07-29T06:29:16.218Z,57.51
2022-07-29T06:31:43.991Z,57.64
2022-07-29T06:34:08.994Z,57.67
2022-07-29T06:36:35.508Z,57.73
2022-07-29T06:39:02.826Z,57.96
2022-07-29T06:41:28.278Z,57.77
2022-07-29T06:43:56.799Z,57.92
2022-07-29T06:46:21.360Z,57.90
2022-07-29T06:48:47.608Z,57.70
2022-07-29T06:51:13.969Z,57.70
2022-07-29T06:53:59.737Z,57.71
2022-07-29T06:56:06.743Z,57.57
2022-07-29T06:58:33.122Z,57.50
2022-07-29T07:00:59.615Z,57.61
2022-07-29T07:03:25.892Z,57.48
2022-07-29T07:05:52.404Z,57.45
2022-07-29T07:08:18.844Z,57.61
2022-07-29T07:10:45.250Z,57.51
2022-07-29T07:13:11.641Z,57.71
2022-07-29T07:15:39.406Z,57.74
2022-07-29T07:18:04.565Z,57.76
2022-07-29T07:20:30.963Z,57.69
2022-07-29T07:22:57.540Z,57.67
2022-07-29T07:25:23.921Z,57.80
2022-07-29T07:27:50.338Z,57.81
2022-07-29T07:30:16.741Z,57.84
2022-07-29T07:32:43.185Z,57.65
2022-07-29T07:35:09.531Z,57.64
2022-07-29T07:37:35.939Z,57.77
2022-07-29T07:40:02.373Z,57.84
2022-07-29T07:42:28.773Z,57.93
2022-07-29T07:45:12.649Z,57.58
2022-07-29T07:47:21.670Z,57.49
2022-07-29T07:49:48.071Z,57.47
2022-07-29T07:52:14.536Z,57.33
2022-07-29T07:54:40.938Z,57.28
2022-07-29T07:57:07.361Z,57.25
2022-07-29T07:59:33.755Z,57.30
2022-07-29T08:02:00.297Z,57.26
2022-07-29T08:04:28.627Z,57.39
2022-07-29T08:06:52.904Z,57.31
2022-07-29T08:09:29.243Z,57.32
2022-07-29T08:11:51.596Z,57.26
2022-07-29T08:14:12.061Z,57.19
2022-07-29T08:16:38.559Z,57.12
2022-07-29T08:19:04.916Z,57.12
2022-07-29T08:21:31.326Z,57.04
2022-07-29T08:24:01.791Z,56.92
2022-07-29T08:26:24.165Z,56.70
2022-07-29T08:28:50.576Z,56.75
2022-07-29T08:31:17.019Z,56.81
2022-07-29T08:33:43.743Z,56.74
2022-07-29T08:36:10.142Z,56.64
2022-07-29T08:38:36.524Z,56.63
2022-07-29T08:41:02.950Z,56.59
2022-07-29T08:43:29.350Z,56.64
2022-07-29T08:45:55.762Z,56.54
2022-07-29T08:48:22.291Z,56.52
2022-07-29T08:50:48.545Z,56.44
2022-07-29T08:53:14.930Z,56.40
2022-07-29T08:55:42.712Z,56.37
2022-07-29T08:58:07.696Z,56.29
2022-07-29T09:00:34.161Z,56.12
2022-07-29T09:03:00.602Z,56.22
2022-07-29T09:05:27.026Z,56.03
2022-07-29T09:07:53.426Z,56.12
2022-07-29T09:10:19.811Z,55.99
2022-07-29T09:12:46.195Z,56.23
2022-07-29T09:15:12.614Z,56.07
2022-07-29T09:17:39.024Z,55.90
2022-07-29T09:20:05.415Z,56.08
2022-07-29T09:22:31.821Z,55.92
2022-07-29T09:24:58.217Z,56.07
2022-07-29T09:27:24.602Z,56.04
2022-07-29T09:29:50.988Z,55.89
2022-07-29T09:32:17.381Z,55.80
2022-07-29T09:34:43.760Z,55.79
2022-07-29T09:37:10.147Z,55.67
2022-07-29T09:39:36.531Z,55.69
2022-07-29T09:42:03.019Z,55.67
2022-07-29T09:44:29.416Z,55.71
2022-07-29T09:46:56.139Z,55.67
2022-07-29T09:49:22.290Z,55.69
2022-07-29T09:51:48.573Z,55.69
2022-07-29T09:54:14.971Z,55.55
2022-07-29T09:56:41.361Z,55.54
2022-07-29T09:59:07.742Z,55.56
2022-07-29T10:01:34.235Z,55.81
2022-07-29T10:04:00.608Z,55.66
2022-07-29T10:06:27.004Z,55.63
2022-07-29T10:08:53.392Z,55.43
2022-07-29T10:11:19.801Z,55.59
2022-07-29T10:13:46.206Z,55.98
2022-07-29T10:16:14.062Z,55.90
2022-07-29T10:18:39.024Z,55.80
2022-07-29T10:21:05.599Z,55.90
2022-07-29T10:23:46.287Z,56.11
2022-07-29T10:26:00.039Z,55.98
2022-07-29T10:28:24.773Z,56.01
2022-07-29T10:30:51.189Z,56.07
2022-07-29T10:33:17.557Z,56.00
2022-07-29T10:35:43.955Z,56.09
2022-07-29T10:38:13.638Z,56.00
2022-07-29T10:40:36.803Z,55.96
2022-07-29T10:43:03.193Z,55.74
2022-07-29T10:45:29.587Z,55.67
2022-07-29T10:47:55.966Z,55.69
2022-07-29T10:50:22.349Z,55.82
2022-07-29T10:52:48.731Z,55.80
2022-07-29T10:55:15.123Z,55.95
2022-07-29T10:57:53.072Z,55.86
2022-07-29T11:00:07.892Z,55.73
2022-07-29T11:02:41.728Z,55.64
2022-07-29T11:05:00.692Z,55.64
2022-07-29T11:07:27.125Z,55.57
2022-07-29T11:09:53.522Z,55.52
2022-07-29T11:12:19.897Z,55.38
2022-07-29T11:14:46.295Z,55.47
2022-07-29T11:17:14.043Z,55.16
2022-07-29T11:22:05.707Z,55.07
2022-07-29T11:24:32.025Z,54.83
2022-07-29T11:29:24.648Z,54.66
2022-07-29T11:31:51.041Z,54.77
2022-07-29T11:34:18.824Z,54.70
2022-07-29T11:36:43.818Z,54.97
2022-07-29T11:39:10.209Z,54.88
2022-07-29T11:41:36.593Z,55.00
2022-07-29T11:44:03.044Z,54.92
2022-07-29T11:46:29.437Z,54.91
2022-07-29T11:48:55.915Z,55.00
2022-07-29T11:51:32.847Z,54.96
2022-07-29T11:53:48.635Z,55.02
2022-07-29T11:56:16.981Z,54.86
2022-07-29T11:58:41.417Z,54.97
2022-07-29T12:01:09.452Z,54.93
2022-07-29T12:03:35.824Z,54.89
2022-07-29T12:06:00.715Z,54.97
2022-07-29T12:07:01.385Z,54.90
2022-07-29T12:08:27.120Z,54.81
2022-07-29T12:10:53.520Z,54.73
2022-07-29T12:13:19.908Z,54.72
2022-07-29T12:15:47.337Z,54.35
2022-07-29T12:18:12.721Z,54.58
2022-07-29T12:20:39.133Z,54.43
2022-07-29T12:23:05.596Z,54.37
2022-07-29T12:25:33.724Z,54.38
2022-07-29T12:27:58.394Z,54.23
2022-07-29T12:30:24.791Z,54.24
2022-07-29T12:32:51.244Z,54.33
2022-07-29T12:35:17.752Z,54.13
2022-07-29T12:37:44.149Z,53.96
2022-07-29T12:40:10.532Z,53.97
2022-07-29T12:42:36.931Z,53.87
2022-07-29T12:45:03.317Z,53.93
2022-07-29T12:47:29.720Z,53.83
2022-07-29T12:49:56.109Z,53.84
2022-07-29T12:52:22.506Z,53.98
2022-07-29T12:54:48.893Z,53.83
2022-07-29T12:57:20.170Z,53.86
2022-07-29T12:59:41.747Z,54.01
2022-07-29T13:02:08.171Z,54.12
2022-07-29T13:04:34.524Z,54.08
2022-07-29T13:07:00.981Z,53.85
2022-07-29T13:09:27.300Z,54.03
2022-07-29T13:11:53.726Z,53.97
2022-07-29T13:14:20.154Z,53.88
2022-07-29T13:16:46.638Z,53.97
2022-07-29T13:19:12.984Z,53.82
2022-07-29T13:21:41.202Z,53.89
2022-07-29T13:24:05.763Z,53.92
2022-07-29T13:26:32.181Z,54.01
2022-07-29T13:28:58.571Z,53.86
2022-07-29T13:31:24.959Z,54.02
2022-07-29T13:33:51.341Z,53.91
2022-07-29T13:36:17.735Z,53.85
2022-07-29T13:38:44.150Z,53.89
2022-07-29T13:41:10.531Z,53.92
2022-07-29T13:43:36.921Z,53.97
2022-07-29T13:46:03.372Z,53.80
2022-07-29T13:48:29.691Z,53.77
2022-07-29T13:50:56.077Z,53.78
2022-07-29T13:53:26.772Z,53.67
2022-07-29T13:55:48.929Z,53.69
2022-07-29T13:58:15.314Z,53.60
2022-07-29T14:00:41.696Z,53.60
2022-07-29T14:03:08.096Z,53.61
2022-07-29T14:05:34.540Z,53.77
2022-07-29T14:08:00.949Z,53.63
2022-07-29T14:10:27.378Z,53.64
2022-07-29T14:12:53.757Z,53.61
2022-07-29T14:15:22.729Z,53.51
2022-07-29T14:17:49.136Z,53.39
2022-07-29T14:20:15.518Z,53.36
2022-07-29T14:22:42.547Z,53.42
2022-07-29T14:25:14.232Z,53.28
2022-07-29T14:27:35.084Z,53.26
2022-07-29T14:30:01.283Z,53.26
2022-07-29T14:32:27.681Z,53.18
2022-07-29T14:34:54.067Z,53.09
2022-07-29T14:37:20.453Z,53.22
2022-07-29T14:39:46.867Z,53.33
2022-07-29T14:42:13.254Z,53.16
2022-07-29T14:44:41.597Z,53.06
2022-07-29T14:47:08.083Z,53.03
2022-07-29T14:49:32.491Z,53.26
2022-07-29T14:51:59.146Z,52.94
2022-07-29T14:54:25.254Z,52.99
2022-07-29T14:56:51.664Z,53.04
2022-07-29T14:59:18.051Z,52.90
2022-07-29T15:01:44.429Z,52.89
2022-07-29T15:04:10.816Z,52.80
2022-07-29T15:06:37.188Z,52.84
2022-07-29T15:09:03.580Z,52.98
2022-07-29T15:11:29.960Z,52.99
2022-07-29T15:13:56.346Z,52.84
2022-07-29T15:16:22.745Z,52.80
2022-07-29T15:18:49.116Z,52.89
2022-07-29T15:21:15.504Z,52.80
2022-07-29T15:23:41.889Z,52.85
2022-07-29T15:26:08.294Z,52.76
2022-07-29T15:28:34.680Z,52.63
2022-07-29T15:31:01.092Z,52.64
2022-07-29T15:33:27.482Z,52.68
2022-07-29T15:38:29.198Z,52.61
2022-07-29T15:40:55.512Z,52.62
2022-07-29T15:43:21.900Z,52.74
2022-07-29T15:45:48.361Z,52.62
2022-07-29T15:48:15.059Z,52.65
2022-07-29T15:50:41.207Z,52.70
2022-07-29T15:53:07.583Z,52.51
2022-07-29T15:55:34.076Z,52.39
2022-07-29T15:58:00.849Z,52.41
2022-07-29T16:00:26.876Z,52.44
2022-07-29T16:02:53.282Z,52.40
2022-07-29T16:05:19.647Z,52.37
2022-07-29T16:07:46.967Z,52.40
2022-07-29T16:10:12.403Z,52.33
2022-07-29T16:12:41.767Z,52.30
2022-07-29T16:15:10.157Z,52.33
2022-07-29T16:17:34.532Z,52.26
2022-07-29T16:20:00.939Z,52.25
2022-07-29T16:22:27.297Z,52.10
2022-07-29T16:24:53.674Z,52.05
2022-07-29T16:27:20.061Z,52.13
2022-07-29T16:29:46.439Z,52.12
2022-07-29T16:32:12.824Z,52.09
2022-07-29T16:34:39.233Z,52.04
2022-07-29T16:37:05.918Z,52.09
2022-07-29T16:39:32.029Z,52.14
2022-07-29T16:42:01.477Z,52.03
2022-07-29T16:44:25.122Z,51.99
2022-07-29T16:46:51.222Z,51.93
2022-07-29T16:49:19.359Z,51.94
2022-07-29T16:51:43.987Z,51.82
2022-07-29T16:54:10.363Z,51.81
2022-07-29T16:56:38.806Z,51.96
2022-07-29T16:59:03.991Z,51.93
2022-07-29T17:01:30.447Z,51.91
2022-07-29T17:03:59.951Z,51.76
2022-07-29T17:06:23.124Z,51.58
2022-07-29T17:08:49.535Z,51.57
2022-07-29T17:11:15.913Z,51.47
2022-07-29T17:13:42.327Z,51.42
2022-07-29T17:16:08.732Z,51.19
2022-07-29T17:18:35.129Z,51.17
2022-07-29T17:21:01.517Z,51.19
2022-07-29T17:23:27.935Z,51.06
2022-07-29T17:25:54.276Z,50.97
2022-07-29T17:28:20.674Z,50.82
2022-07-29T17:30:47.043Z,50.73
2022-07-29T17:33:13.431Z,50.58
2022-07-29T17:35:39.838Z,50.62
2022-07-29T17:38:06.193Z,50.61
2022-07-29T17:40:32.570Z,50.74
2022-07-29T17:42:58.960Z,50.88
2022-07-29T17:45:25.335Z,50.92
2022-07-29T17:47:51.853Z,50.80
2022-07-29T17:50:18.233Z,50.75
2022-07-29T17:52:44.616Z,50.76
2022-07-29T17:55:10.996Z,50.69
2022-07-29T17:57:37.383Z,50.75
2022-07-29T18:00:03.766Z,50.68
2022-07-29T18:02:30.320Z,50.73
2022-07-29T18:04:56.633Z,50.69
2022-07-29T18:07:23.049Z,50.58
2022-07-29T18:09:49.425Z,50.44
2022-07-29T18:12:15.907Z,50.35
2022-07-29T18:14:42.416Z,50.40
2022-07-29T18:17:08.775Z,50.27
2022-07-29T18:19:35.153Z,50.22
2022-07-29T18:22:05.428Z,50.18
2022-07-29T18:24:27.940Z,50.18
2022-07-29T18:26:54.339Z,50.23
2022-07-29T18:29:20.717Z,50.20
2022-07-29T18:31:49.739Z,50.12
2022-07-29T18:34:16.082Z,50.08
2022-07-29T18:36:42.497Z,50.06
2022-07-29T18:39:08.869Z,50.02
2022-07-29T18:41:35.330Z,50.01
2022-07-29T18:44:01.705Z,49.99
2022-07-29T18:46:28.117Z,49.96
2022-07-29T18:48:54.542Z,49.92
2022-07-29T18:51:20.868Z,49.91
2022-07-29T18:53:47.245Z,49.84
2022-07-29T18:56:13.634Z,49.76
2022-07-29T18:58:40.039Z,49.76
2022-07-29T19:01:06.429Z,49.72
2022-07-29T19:03:32.818Z,49.73
2022-07-29T19:05:59.227Z,49.67
2022-07-29T19:08:27.591Z,49.65
2022-07-29T19:10:52.120Z,49.65
2022-07-29T19:13:18.501Z,49.60
2022-07-29T19:15:44.900Z,49.59
2022-07-29T19:18:11.284Z,49.55
2022-07-29T19:20:37.672Z,49.52
2022-07-29T19:23:04.056Z,49.51
2022-07-29T19:25:30.516Z,49.54
2022-07-29T19:27:56.963Z,49.50
2022-07-29T19:30:23.348Z,49.51
2022-07-29T19:32:49.717Z,49.49
2022-07-29T19:35:16.100Z,49.54
2022-07-29T19:37:43.460Z,49.47
2022-07-29T19:40:08.877Z,49.52
2022-07-29T19:42:35.279Z,49.46
2022-07-29T19:45:01.986Z,49.46
2022-07-29T19:47:28.395Z,49.45
2022-07-29T19:49:54.757Z,49.44
2022-07-29T19:52:21.145Z,49.46
2022-07-29T19:54:47.519Z,49.48
2022-07-29T19:57:14.147Z,49.42
2022-07-29T19:59:40.285Z,49.43
2022-07-29T20:02:06.717Z,49.41
2022-07-29T20:04:33.156Z,49.42
2022-07-29T20:06:59.764Z,49.43
2022-07-29T20:09:25.814Z,49.46
2022-07-29T20:11:52.225Z,49.50
2022-07-29T20:14:18.604Z,49.49
2022-07-29T20:16:45.015Z,49.44
2022-07-29T20:19:11.401Z,49.55
2022-07-29T20:21:37.792Z,49.45
2022-07-29T20:24:04.204Z,49.48
2022-07-29T20:26:30.598Z,49.47
2022-07-29T20:28:56.990Z,49.49
2022-07-29T20:31:23.462Z,49.61
2022-07-29T20:33:51.233Z,49.68
2022-07-29T20:36:16.224Z,49.67
2022-07-29T20:38:42.629Z,49.63
2022-07-29T20:41:08.993Z,49.61
2022-07-29T20:43:35.933Z,49.49
2022-07-29T20:46:01.821Z,49.65
2022-07-29T20:48:28.150Z,49.72
2022-07-29T20:50:54.534Z,49.82
2022-07-29T20:53:20.950Z,49.77
2022-07-29T20:55:47.338Z,49.84
2022-07-29T20:58:13.729Z,49.83
2022-07-29T21:00:40.111Z,49.83
2022-07-29T21:03:06.548Z,49.85
2022-07-29T21:05:32.879Z,49.83
2022-07-29T21:07:59.259Z,49.77
2022-07-29T21:10:25.654Z,49.80
2022-07-29T21:12:52.025Z,49.74
2022-07-29T21:15:18.422Z,49.73
2022-07-29T21:17:44.808Z,49.77
2022-07-29T21:20:11.200Z,49.80
2022-07-29T21:22:37.588Z,49.73
2022-07-29T21:25:03.976Z,49.65
2022-07-29T21:27:30.444Z,49.73
2022-07-29T21:29:56.832Z,49.73
2022-07-29T21:32:30.189Z,49.75
2022-07-29T21:34:49.646Z,49.70
2022-07-29T21:37:16.037Z,49.61
2022-07-29T21:39:42.551Z,49.58
2022-07-29T21:42:09.044Z,49.64
2022-07-29T21:44:35.456Z,49.61
2022-07-29T21:47:02.287Z,49.68
2022-07-29T21:49:28.455Z,49.66
2022-07-29T21:51:54.754Z,49.76
2022-07-29T21:54:21.135Z,49.78
2022-07-29T21:56:51.158Z,49.87
2022-07-29T21:59:14.894Z,49.83
2022-07-29T22:01:40.360Z,49.92
2022-07-29T22:04:06.740Z,49.92
2022-07-29T22:06:33.117Z,49.85
2022-07-29T22:08:59.512Z,49.81
2022-07-29T22:11:25.887Z,49.70
2022-07-29T22:13:52.271Z,49.66
2022-07-29T22:16:18.698Z,49.63
2022-07-29T22:18:45.141Z,49.61
2022-07-29T22:21:11.572Z,49.52
2022-07-29T22:23:37.968Z,49.45
2022-07-29T22:26:04.371Z,49.45
2022-07-29T22:28:30.897Z,49.46
2022-07-29T22:30:57.383Z,49.45
2022-07-29T22:33:23.707Z,49.45
2022-07-29T22:35:50.093Z,49.42
2022-07-29T22:38:16.480Z,49.41
2022-07-29T22:40:42.864Z,49.46
2022-07-29T22:43:09.255Z,49.48
2022-07-29T22:45:35.633Z,49.47
2022-07-29T22:48:02.017Z,49.39
2022-07-29T22:50:28.396Z,49.36
2022-07-29T22:52:55.827Z,49.46
2022-07-29T22:55:22.216Z,49.44
2022-07-29T22:57:48.606Z,49.40
2022-07-29T23:00:15.138Z,49.45
2022-07-29T23:02:41.783Z,49.41
2022-07-29T23:05:07.940Z,49.38
2022-07-29T23:07:34.419Z,49.44
2022-07-29T23:10:00.844Z,49.39
2022-07-29T23:12:27.208Z,49.35
2022-07-29T23:14:53.593Z,49.38
2022-07-29T23:17:21.247Z,49.32
2022-07-29T23:19:46.393Z,49.28
2022-07-29T23:22:12.778Z,49.32
2022-07-29T23:24:39.166Z,49.33
2022-07-29T23:27:05.554Z,49.40
2022-07-29T23:29:36.345Z,49.35
2022-07-29T23:31:58.464Z,49.40
2022-07-29T23:34:24.879Z,49.39
2022-07-29T23:36:51.266Z,49.40
2022-07-29T23:39:17.644Z,49.42
2022-07-29T23:41:44.041Z,49.42
2022-07-29T23:44:10.447Z,49.40
2022-07-29T23:46:36.877Z,49.41
2022-07-29T23:49:03.287Z,49.41
2022-07-29T23:51:29.631Z,49.35
2022-07-29T23:53:56.023Z,49.39
2022-07-29T23:56:22.399Z,49.43
2022-07-29T23:58:48.805Z,49.42
